Time;durP1;ratioP1;P1;durP2;ratioP2;P2;SDS_P1;SDS_P2;PMS_P1;PMS_P2;Temp;Humidity;BMP_temperature;BMP_pressure;BME280_temperature;BME280_humidity;BME280_pressure;Samples;Min_cycle;Max_cycle;Signal;HPM_P1;HPM_P2
2022/07/15 00:02:10;;;;;;;10.93;4.67;;;;;;;13.27;82.91;102118.50;5058358;28;20032;-78
2022/07/15 00:04:36;;;;;;;12.93;4.23;;;;;;;13.24;83.03;102120.75;5058466;28;20060;-78
2022/07/15 00:07:02;;;;;;;9.60;4.07;;;;;;;13.15;83.27;102111.88;5058100;28;20048;-78
2022/07/15 00:12:12;;;;;;;11.40;3.97;;;;;;;13.10;83.21;102117.09;5058401;28;21490;-78
2022/07/15 00:14:39;;;;;;;9.23;3.80;;;;;;;13.09;83.54;102118.13;5058077;28;20040;-78
2022/07/15 00:17:06;;;;;;;9.43;3.93;;;;;;;13.11;83.25;102124.19;5058080;28;20033;-78
2022/07/15 00:19:31;;;;;;;10.50;4.03;;;;;;;13.07;83.58;102117.47;5057674;28;20063;-77
2022/07/15 00:21:57;;;;;;;15.17;4.30;;;;;;;13.02;83.48;102112.63;5058465;28;20469;-77
2022/07/15 00:24:22;;;;;;;11.30;4.10;;;;;;;12.97;83.68;102110.53;5057550;28;20424;-77
2022/07/15 00:26:48;;;;;;;11.83;4.20;;;;;;;12.96;83.73;102116.13;5046196;28;20036;-77
2022/07/15 00:29:13;;;;;;;8.57;4.20;;;;;;;12.89;84.02;102113.38;5057110;28;20488;-78
2022/07/15 00:31:38;;;;;;;13.20;4.00;;;;;;;12.98;83.93;102117.63;5045812;28;20535;-77
2022/07/15 00:34:04;;;;;;;10.80;4.00;;;;;;;12.98;84.12;102117.63;5057862;28;20135;-79
2022/07/15 00:36:29;;;;;;;13.37;4.43;;;;;;;12.98;84.08;102116.78;5056959;28;20082;-77
2022/07/15 00:38:54;;;;;;;14.00;4.37;;;;;;;12.93;84.32;102114.66;5057326;28;20052;-78
2022/07/15 00:41:20;;;;;;;12.23;4.33;;;;;;;12.95;84.38;102106.31;5057145;28;20740;-78
2022/07/15 00:43:46;;;;;;;10.17;4.50;;;;;;;12.91;84.52;102100.41;5057829;28;20089;-78
2022/07/15 00:46:21;;;;;;;9.40;4.20;;;;;;;12.93;84.60;102097.50;5057172;28;20044;-78
2022/07/15 00:48:48;;;;;;;16.40;4.43;;;;;;;12.89;84.52;102105.22;5057400;28;20533;-80
2022/07/15 00:51:13;;;;;;;11.63;4.50;;;;;;;12.91;84.79;102111.28;5057178;28;20107;-77
2022/07/15 00:53:39;;;;;;;14.60;4.77;;;;;;;12.84;84.48;102104.97;5038028;28;20188;-78
2022/07/15 00:56:09;;;;;;;12.33;4.33;;;;;;;12.78;84.82;102109.31;5056731;28;20115;-79
2022/07/15 00:58:40;;;;;;;12.67;4.43;;;;;;;12.79;85.24;102102.81;5057496;28;20115;-79
2022/07/15 01:01:07;;;;;;;14.80;4.77;;;;;;;12.88;85.46;102108.97;5057438;28;20064;-79
2022/07/15 01:03:33;;;;;;;10.60;4.30;;;;;;;12.73;85.48;102105.47;5056605;28;20040;-77
2022/07/15 01:05:59;;;;;;;13.90;4.90;;;;;;;12.70;85.43;102106.72;5039086;28;20051;-78
2022/07/15 01:08:25;;;;;;;12.23;4.33;;;;;;;12.62;85.69;102102.25;5073719;28;20119;-77
2022/07/15 01:10:51;;;;;;;12.60;4.70;;;;;;;12.64;85.65;102105.59;5077400;28;20538;-79
2022/07/15 01:13:18;;;;;;;12.03;4.47;;;;;;;12.59;85.73;102108.09;5077685;28;20070;-78
2022/07/15 01:15:43;;;;;;;13.17;4.80;;;;;;;12.56;85.60;102100.31;5076270;28;20032;-78
2022/07/15 01:18:09;;;;;;;12.30;4.50;;;;;;;12.53;85.80;102108.03;5076968;28;20051;-78
2022/07/15 01:20:34;;;;;;;9.07;4.10;;;;;;;12.57;86.28;102118.31;5075461;28;20050;-77
2022/07/15 01:23:00;;;;;;;11.87;4.40;;;;;;;12.52;86.06;102109.06;5076488;28;20039;-78
2022/07/15 01:25:27;;;;;;;9.93;4.30;;;;;;;12.43;86.30;102111.03;5076223;28;20044;-78
2022/07/15 01:27:52;;;;;;;11.77;4.20;;;;;;;12.36;86.18;102102.81;5077168;28;20524;-79
2022/07/15 01:30:18;;;;;;;10.43;4.60;;;;;;;12.32;86.39;102113.25;5076797;28;20040;-78
2022/07/15 01:32:43;;;;;;;12.03;4.50;;;;;;;12.29;86.20;102108.22;5076985;28;20040;-78
2022/07/15 01:35:09;;;;;;;14.07;4.67;;;;;;;12.37;85.99;102119.97;5076253;28;20048;-78
2022/07/15 01:37:34;;;;;;;10.17;4.40;;;;;;;12.29;86.01;102119.06;5076795;28;20133;-80
2022/07/15 01:39:59;;;;;;;11.20;4.57;;;;;;;12.24;86.39;102121.53;5076131;28;20028;-79
2022/07/15 01:42:25;;;;;;;11.33;4.77;;;;;;;12.19;86.99;102117.69;5076249;28;20167;-79
2022/07/15 01:44:50;;;;;;;10.43;4.73;;;;;;;12.09;87.11;102124.28;5076509;28;20028;-80
2022/07/15 01:47:16;;;;;;;14.43;4.93;;;;;;;12.06;87.20;102130.09;5076214;28;20460;-80
2022/07/15 01:49:41;;;;;;;11.47;4.77;;;;;;;12.02;87.59;102126.03;5076132;28;20467;-79
2022/07/15 01:52:09;;;;;;;14.70;5.03;;;;;;;11.98;88.19;102131.03;5075876;28;20040;-78
2022/07/15 01:54:34;;;;;;;12.60;4.80;;;;;;;11.95;88.28;102128.72;5075233;28;20476;-80
2022/07/15 01:56:59;;;;;;;14.53;5.20;;;;;;;11.96;88.56;102133.09;5075016;28;20118;-80
2022/07/15 01:59:26;;;;;;;10.83;4.63;;;;;;;11.98;88.88;102132.88;5076469;28;20040;-78
2022/07/15 02:01:53;;;;;;;10.47;4.53;;;;;;;11.90;88.44;102130.25;5074411;28;20032;-79
2022/07/15 02:04:19;;;;;;;13.50;5.10;;;;;;;11.89;88.30;102128.59;5076889;28;20116;-78
2022/07/15 02:06:45;;;;;;;11.17;4.47;;;;;;;11.86;88.68;102124.38;5072818;28;20246;-79
2022/07/15 02:09:11;;;;;;;13.90;4.83;;;;;;;11.85;88.69;102127.28;5056311;28;20116;-79
2022/07/15 02:11:37;;;;;;;11.87;4.80;;;;;;;11.81;88.80;102132.25;5056153;28;20036;-77
2022/07/15 02:14:02;;;;;;;11.83;4.60;;;;;;;11.85;88.55;102127.28;5055637;28;20047;-78
2022/07/15 02:16:32;;;;;;;11.53;4.73;;;;;;;11.80;88.54;102130.53;5055777;28;20106;-77
2022/07/15 02:19:00;;;;;;;10.63;4.57;;;;;;;11.73;88.44;102135.06;5055898;28;20032;-79
2022/07/15 02:21:26;;;;;;;9.17;4.33;;;;;;;11.72;88.14;102131.50;5055247;28;20456;-78
2022/07/15 02:23:53;;;;;;;9.23;4.67;;;;;;;11.71;88.77;102137.09;5055842;28;20029;-78
2022/07/15 02:26:19;;;;;;;9.90;4.57;;;;;;;11.66;88.82;102130.34;5054914;28;20384;-78
2022/07/15 02:28:44;;;;;;;12.03;4.80;;;;;;;11.67;88.79;102128.50;5056268;28;20051;-77
2022/07/15 02:31:11;;;;;;;12.00;4.77;;;;;;;11.65;88.47;102128.69;5055157;28;20033;-78
2022/07/15 02:33:36;;;;;;;8.60;4.50;;;;;;;11.69;88.00;102118.28;5056109;28;20036;-77
2022/07/15 02:36:02;;;;;;;9.07;4.20;;;;;;;11.65;87.87;102119.69;5055644;28;20040;-79
2022/07/15 02:38:27;;;;;;;8.23;4.43;;;;;;;11.54;88.02;102123.72;5055130;28;20041;-80
2022/07/15 02:40:52;;;;;;;12.07;4.60;;;;;;;11.57;88.50;102125.22;5055391;28;20060;-77
2022/07/15 02:43:18;;;;;;;12.43;4.73;;;;;;;11.47;88.67;102120.06;5038362;28;20074;-77
2022/07/15 02:45:44;;;;;;;9.20;4.77;;;;;;;11.57;88.63;102126.06;5037676;28;20484;-78
2022/07/15 02:48:09;;;;;;;10.03;4.47;;;;;;;11.49;88.44;102126.13;5055109;28;20387;-78
2022/07/15 02:50:35;;;;;;;11.10;4.37;;;;;;;11.53;87.93;102124.75;5055167;28;20044;-79
2022/07/15 02:53:02;;;;;;;12.97;4.70;;;;;;;11.38;88.28;102124.75;5055984;28;20032;-77
2022/07/15 02:55:27;;;;;;;11.77;4.33;;;;;;;11.41;88.72;102128.94;5055696;28;20037;-77
2022/07/15 02:57:53;;;;;;;8.17;4.07;;;;;;;11.19;88.48;102107.13;5055553;28;20045;-77
2022/07/15 03:00:19;;;;;;;10.63;4.40;;;;;;;11.35;88.38;102125.09;5055269;28;20036;-77
2022/07/15 03:02:46;;;;;;;10.27;4.63;;;;;;;11.29;88.16;102142.97;5055519;28;20922;-78
2022/07/15 03:05:12;;;;;;;9.33;4.73;;;;;;;11.28;89.12;102145.88;5055018;28;20079;-79
2022/07/15 03:07:37;;;;;;;9.53;4.23;;;;;;;11.25;89.66;102149.81;5055521;28;20135;-78
2022/07/15 03:10:05;;;;;;;10.53;4.80;;;;;;;11.21;90.07;102144.94;5055654;28;20040;-81
2022/07/15 03:12:31;;;;;;;9.87;4.60;;;;;;;11.20;90.31;102146.78;5055313;28;20484;-78
2022/07/15 03:14:57;;;;;;;13.00;4.80;;;;;;;11.14;90.86;102142.13;5036714;28;20044;-78
2022/07/15 03:17:22;;;;;;;10.17;4.50;;;;;;;11.18;91.26;102153.41;5055025;28;20292;-78
2022/07/15 03:19:47;;;;;;;13.87;5.10;;;;;;;11.18;91.58;102159.72;5055569;28;20036;-78
2022/07/15 03:22:13;;;;;;;8.87;4.50;;;;;;;11.16;91.91;102156.31;5054926;28;20036;-79
2022/07/15 03:24:38;;;;;;;10.27;4.90;;;;;;;11.14;92.13;102158.41;5055293;28;20086;-79
2022/07/15 03:27:03;;;;;;;12.47;4.73;;;;;;;11.13;92.41;102168.38;5055039;28;20040;-78
2022/07/15 03:29:29;;;;;;;14.30;5.47;;;;;;;11.15;93.01;102171.78;5055273;28;20491;-78
2022/07/15 03:31:55;;;;;;;10.93;5.00;;;;;;;11.12;92.53;102163.16;5054968;28;20265;-79
2022/07/15 03:34:20;;;;;;;18.13;5.40;;;;;;;11.23;93.22;102178.13;5057222;28;20032;-77
2022/07/15 03:36:46;;;;;;;12.80;4.83;;;;;;;11.21;93.41;102172.91;5058227;28;20052;-78
2022/07/15 03:39:11;;;;;;;13.77;5.20;;;;;;;11.21;93.08;102172.91;5058735;28;20362;-77
2022/07/15 03:41:37;;;;;;;15.57;5.30;;;;;;;11.32;93.91;102182.47;5058502;28;20055;-77
2022/07/15 03:44:03;;;;;;;14.60;5.10;;;;;;;11.35;94.32;102175.84;5040700;28;20036;-77
2022/07/15 03:46:29;;;;;;;13.10;4.73;;;;;;;11.24;93.84;102174.41;5039895;28;20037;-77
2022/07/15 03:48:55;;;;;;;12.87;5.10;;;;;;;11.26;93.29;102175.91;5058485;28;20064;-78
2022/07/15 03:51:21;;;;;;;13.33;5.07;;;;;;;11.26;92.95;102177.75;5057878;28;20040;-79
2022/07/15 03:53:46;;;;;;;10.77;4.63;;;;;;;11.29;92.40;102180.97;5058796;28;20531;-78
2022/07/15 03:56:12;;;;;;;11.90;5.13;;;;;;;11.40;92.12;102189.69;5040204;28;20064;-78
2022/07/15 03:58:37;;;;;;;11.47;4.53;;;;;;;11.40;91.76;102189.69;5057923;28;20048;-79
2022/07/15 04:01:03;;;;;;;15.70;5.03;;;;;;;11.41;92.34;102191.38;5057910;28;20036;-79
2022/07/15 04:03:29;;;;;;;12.70;4.50;;;;;;;11.37;92.58;102190.91;5058285;28;20131;-77
2022/07/15 04:05:54;;;;;;;7.97;4.40;;;;;;;11.43;92.33;102189.31;5040076;28;20044;-77
2022/07/15 04:08:20;;;;;;;12.53;5.00;;;;;;;11.43;93.02;102195.59;5073723;28;20109;-77
2022/07/15 04:10:45;;;;;;;11.50;4.83;;;;;;;11.48;92.99;102189.63;5077994;28;20127;-77
2022/07/15 04:13:10;;;;;;;12.97;5.17;;;;;;;11.53;93.47;102189.88;5076657;28;20067;-77
2022/07/15 04:15:36;;;;;;;12.27;4.70;;;;;;;11.56;92.92;102200.38;5078128;28;20159;-78
2022/07/15 04:18:01;;;;;;;8.77;4.80;;;;;;;11.63;92.99;102193.19;5077844;28;20035;-77
2022/07/15 04:20:27;;;;;;;9.97;4.70;;;;;;;11.65;92.82;102199.28;5077982;28;20040;-79
2022/07/15 04:22:53;;;;;;;12.27;4.83;;;;;;;11.63;93.07;102193.19;5077153;28;20031;-78
2022/07/15 04:25:20;;;;;;;13.23;4.77;;;;;;;11.66;93.42;102192.81;5076384;28;20162;-77
2022/07/15 04:27:48;;;;;;;11.17;4.60;;;;;;;11.72;93.09;102193.09;5077841;28;20036;-78
2022/07/15 04:30:14;;;;;;;13.13;4.63;;;;;;;11.80;93.00;102199.28;5077883;28;20032;-80
2022/07/15 04:32:39;;;;;;;10.33;4.70;;;;;;;11.88;93.28;102186.63;5078040;28;20425;-80
2022/07/15 04:35:06;;;;;;;14.50;4.57;;;;;;;11.97;93.76;102199.97;5077378;28;20536;-78
2022/07/15 04:37:31;;;;;;;12.33;4.67;;;;;;;12.08;93.83;102189.66;5077644;28;20492;-79
2022/07/15 04:39:57;;;;;;;12.80;4.77;;;;;;;12.14;93.98;102194.31;5077673;28;20046;-81
2022/07/15 04:42:22;;;;;;;13.30;5.00;;;;;;;12.26;95.46;102200.13;5077329;28;20701;-78
2022/07/15 04:44:49;;;;;;;16.53;4.60;;;;;;;12.26;94.40;102200.97;5078160;28;20036;-78
2022/07/15 04:47:15;;;;;;;15.57;4.87;;;;;;;12.35;93.84;102203.56;5076303;28;20117;-80
2022/07/15 04:52:24;;;;;;;14.63;4.30;;;;;;;12.49;92.90;102210.84;5077437;28;20541;-78
2022/07/15 04:54:53;;;;;;;14.33;4.60;;;;;;;12.55;92.91;102209.25;5077239;28;20035;-78
2022/07/15 04:57:19;;;;;;;12.97;4.30;;;;;;;12.64;92.73;102210.81;5075162;28;20066;-78
2022/07/15 04:59:45;;;;;;;20.60;4.97;;;;;;;12.64;93.21;102203.50;5077258;28;20028;-77
2022/07/15 05:02:10;;;;;;;11.53;4.13;;;;;;;12.72;92.74;102212.59;5075388;28;20071;-77
2022/07/15 05:04:35;;;;;;;16.37;4.00;;;;;;;12.81;92.17;102214.13;5077160;28;20675;-78
2022/07/15 05:07:01;;;;;;;13.83;4.13;;;;;;;12.84;91.83;102206.44;5071311;28;20145;-77
2022/07/15 05:09:27;;;;;;;14.37;4.17;;;;;;;12.90;92.01;102207.53;5056814;28;20036;-77
2022/07/15 05:11:52;;;;;;;15.87;4.30;;;;;;;12.96;91.76;102206.78;5038020;28;20036;-77
2022/07/15 05:14:18;;;;;;;11.80;4.00;;;;;;;12.99;91.23;102202.81;5038708;28;20064;-78
2022/07/15 05:16:43;;;;;;;10.43;4.00;;;;;;;13.09;91.08;102210.66;5056516;28;20059;-77
2022/07/15 05:19:09;;;;;;;10.47;4.13;;;;;;;13.13;91.12;102209.22;5056643;28;20624;-77
2022/07/15 05:21:34;;;;;;;13.27;4.20;;;;;;;13.20;90.10;102218.28;5056553;28;20071;-78
2022/07/15 05:24:00;;;;;;;13.37;4.33;;;;;;;13.25;89.88;102221.25;5056378;28;20496;-78
2022/07/15 05:26:25;;;;;;;11.23;3.70;;;;;;;13.35;88.87;102223.63;5056183;28;20044;-77
2022/07/15 05:28:50;;;;;;;9.20;3.47;;;;;;;13.30;88.64;102202.47;5056463;28;20045;-78
2022/07/15 05:31:16;;;;;;;10.13;3.57;;;;;;;13.45;89.04;102217.88;5056214;28;20064;-77
2022/07/15 05:33:41;;;;;;;11.90;4.00;;;;;;;13.55;88.32;102217.56;5056154;28;20377;-79
2022/07/15 05:36:13;;;;;;;9.80;3.60;;;;;;;13.59;87.77;102219.69;5056006;28;20480;-77
2022/07/15 05:38:40;;;;;;;15.80;3.90;;;;;;;13.66;87.39;102223.28;5059711;28;20685;-79
2022/07/15 05:41:05;;;;;;;12.13;4.13;;;;;;;13.74;86.97;102211.41;5055189;28;20024;-78
2022/07/15 05:43:31;;;;;;;8.47;3.47;;;;;;;13.78;86.67;102214.56;5056019;28;20047;-79
2022/07/15 05:45:56;;;;;;;14.57;4.20;;;;;;;13.79;87.25;102206.19;5055758;28;20033;-78
2022/07/15 05:48:21;;;;;;;10.73;3.60;;;;;;;13.90;86.98;102218.41;5055481;28;20538;-78
2022/07/15 05:50:47;;;;;;;9.13;3.27;;;;;;;13.96;86.21;102214.88;5056321;28;20025;-79
2022/07/15 05:53:12;;;;;;;13.60;3.53;;;;;;;13.97;85.37;102211.13;5055290;28;20480;-79
2022/07/15 05:55:38;;;;;;;11.77;3.07;;;;;;;13.97;85.73;102213.00;5062610;28;20111;-79
2022/07/15 05:58:08;;;;;;;11.70;3.07;;;;;;;14.01;84.99;102208.84;5055491;28;20036;-79
2022/07/15 06:00:34;;;;;;;11.77;3.20;;;;;;;14.08;84.34;102206.97;5056274;28;20068;-77
2022/07/15 06:03:01;;;;;;;7.73;2.70;;;;;;;14.19;83.48;102205.56;5055893;28;20032;-79
2022/07/15 06:05:27;;;;;;;8.97;2.80;;;;;;;14.29;83.50;102208.78;5055888;28;20033;-78
2022/07/15 06:07:53;;;;;;;9.87;2.80;;;;;;;14.39;82.65;102194.75;5056153;28;20500;-78
2022/07/15 06:10:18;;;;;;;6.97;2.73;;;;;;;14.43;82.51;102200.63;5055950;28;20050;-78
2022/07/15 06:12:44;;;;;;;6.73;2.70;;;;;;;14.56;80.96;102208.84;5055586;28;20111;-78
2022/07/15 06:15:10;;;;;;;9.77;2.70;;;;;;;14.60;79.66;102207.38;5056162;28;20062;-80
2022/07/15 06:17:36;;;;;;;10.90;2.97;;;;;;;14.80;81.50;102212.09;5055934;28;20041;-79
2022/07/15 06:20:01;;;;;;;7.03;2.27;;;;;;;14.88;79.68;102208.31;5056132;28;20060;-77
2022/07/15 06:22:27;;;;;;;7.90;2.20;;;;;;;14.93;78.41;102214.88;5055415;28;20048;-79
2022/07/15 06:24:53;;;;;;;6.97;2.20;;;;;;;15.02;76.39;102210.03;5040538;28;20059;-77
2022/07/15 06:27:18;;;;;;;10.83;2.10;;;;;;;15.07;77.96;102214.84;5055576;28;20424;-78
2022/07/15 06:29:43;;;;;;;8.43;2.10;;;;;;;15.19;76.08;102214.03;5055470;28;20094;-78
2022/07/15 06:32:11;;;;;;;7.13;2.00;;;;;;;15.29;76.17;102210.88;5054791;28;20424;-79
2022/07/15 06:34:37;;;;;;;6.40;1.87;;;;;;;15.34;76.25;102210.28;5055753;28;20033;-79
2022/07/15 06:37:02;;;;;;;8.30;1.60;;;;;;;15.55;75.15;102203.72;5055885;28;20353;-81
2022/07/15 06:39:28;;;;;;;9.23;1.73;;;;;;;15.59;72.34;102210.44;5056074;28;20048;-81
2022/07/15 06:41:53;;;;;;;7.83;2.07;;;;;;;15.68;72.97;102200.97;5037696;28;20036;-79
2022/07/15 06:44:18;;;;;;;7.23;1.70;;;;;;;15.69;72.09;102208.13;5037126;28;20067;-78
2022/07/15 06:46:44;;;;;;;8.17;1.63;;;;;;;15.69;72.39;102210.88;5055898;28;20024;-79
2022/07/15 06:49:09;;;;;;;6.43;1.77;;;;;;;15.76;73.01;102213.59;5021071;28;20566;-78
2022/07/15 06:51:34;;;;;;;6.40;1.70;;;;;;;15.82;72.70;102211.91;5055420;28;20553;-79
2022/07/15 06:54:00;;;;;;;8.37;2.10;;;;;;;15.95;72.56;102220.09;5054486;28;20044;-80
2022/07/15 06:56:25;;;;;;;10.17;2.33;;;;;;;16.05;71.89;102214.16;5055283;28;20522;-80
2022/07/15 06:58:50;;;;;;;6.93;2.20;;;;;;;16.06;70.92;102215.00;5055718;28;20037;-78
2022/07/15 07:01:16;;;;;;;7.53;2.10;;;;;;;16.11;71.84;102212.47;5052485;28;20447;-79
2022/07/15 07:03:41;;;;;;;6.87;1.90;;;;;;;16.31;70.80;102224.16;5058645;28;20036;-77
2022/07/15 07:06:08;;;;;;;5.23;1.60;;;;;;;16.37;68.62;102223.31;5070878;28;20036;-78
2022/07/15 07:08:33;;;;;;;8.63;1.90;;;;;;;16.44;68.64;102223.28;5058500;28;20050;-79
2022/07/15 07:10:58;;;;;;;8.13;1.60;;;;;;;16.48;67.25;102213.59;5058904;28;20036;-79
2022/07/15 07:13:24;;;;;;;7.13;1.70;;;;;;;16.58;66.44;102213.09;5058708;28;20095;-79
2022/07/15 07:15:49;;;;;;;5.50;1.50;;;;;;;16.69;66.79;102219.78;5059269;28;20037;-79
2022/07/15 07:18:15;;;;;;;4.90;1.47;;;;;;;16.68;64.66;102218.94;5057862;28;20452;-79
2022/07/15 07:20:43;;;;;;;7.40;2.17;;;;;;;16.93;65.48;102233.75;5058768;28;20056;-80
2022/07/15 07:23:09;;;;;;;4.03;1.20;;;;;;;17.02;63.78;102236.00;5063627;28;20484;-78
2022/07/15 07:25:35;;;;;;;7.90;1.93;;;;;;;17.12;65.46;102227.34;5067285;28;20111;-80
2022/07/15 07:28:03;;;;;;;7.50;1.57;;;;;;;17.23;65.13;102225.78;5041982;28;20078;-81
2022/07/15 07:30:31;;;;;;;8.33;1.80;;;;;;;17.32;63.66;102229.88;5058644;28;20045;-80
2022/07/15 07:32:57;;;;;;;6.80;2.00;;;;;;;17.30;61.98;102232.03;5058535;28;20481;-80
2022/07/15 07:35:23;;;;;;;5.70;1.87;;;;;;;17.44;63.38;102230.00;5060168;28;20130;-78
2022/07/15 07:37:50;;;;;;;5.70;1.73;;;;;;;17.34;62.03;102238.75;5076224;28;20724;-78
2022/07/15 07:40:18;;;;;;;5.53;1.87;;;;;;;17.20;62.88;102237.16;5071367;28;20028;-81
2022/07/15 07:42:44;;;;;;;18.20;2.37;;;;;;;17.23;62.88;102246.81;5070958;28;20025;-77
2022/07/15 07:45:10;;;;;;;4.97;1.60;;;;;;;17.12;61.87;102245.63;5069655;28;20460;-78
2022/07/15 07:47:37;;;;;;;6.03;1.73;;;;;;;16.96;61.30;102242.38;5073767;28;20020;-78
2022/07/15 07:50:04;;;;;;;7.40;1.70;;;;;;;17.19;62.75;102246.44;5068267;28;22836;-79
2022/07/15 07:52:29;;;;;;;14.23;2.23;;;;;;;17.35;64.39;102234.09;5072490;28;20112;-78
2022/07/15 07:54:55;;;;;;;8.77;1.90;;;;;;;17.61;63.73;102246.72;5051829;28;20103;-78
2022/07/15 07:57:20;;;;;;;8.90;2.00;;;;;;;17.48;60.67;102250.41;5072372;28;20062;-78
2022/07/15 07:59:45;;;;;;;7.37;1.90;;;;;;;17.37;61.55;102229.22;5066441;28;20033;-79
2022/07/15 08:02:11;;;;;;;8.13;1.70;;;;;;;17.44;61.13;102245.63;5058258;28;20036;-79
2022/07/15 08:04:37;;;;;;;3.67;1.70;;;;;;;17.54;61.44;102244.06;5058196;28;20032;-81
2022/07/15 08:07:02;;;;;;;7.70;1.80;;;;;;;17.33;61.99;102242.53;5057979;28;20056;-80
2022/07/15 08:09:28;;;;;;;6.63;1.83;;;;;;;17.31;62.87;102239.19;5057605;28;20037;-80
2022/07/15 08:11:53;;;;;;;6.90;1.97;;;;;;;17.16;64.16;102242.25;5057658;28;20131;-79
2022/07/15 08:14:19;;;;;;;7.17;2.00;;;;;;;17.33;63.58;102230.75;5057216;28;20047;-79
2022/07/15 08:16:46;;;;;;;5.23;1.97;;;;;;;17.81;64.78;102234.72;5060406;28;20440;-77
2022/07/15 08:19:15;;;;;;;5.70;1.60;;;;;;;17.83;62.53;102246.31;5064121;28;20032;-77
2022/07/15 08:21:41;;;;;;;6.30;1.40;;;;;;;18.10;63.14;102240.56;5067945;28;20420;-81
2022/07/15 08:24:06;;;;;;;6.43;1.60;;;;;;;18.33;62.44;102242.59;5071702;28;20028;-78
2022/07/15 08:26:32;;;;;;;6.23;2.00;;;;;;;18.53;57.07;102248.69;5073472;28;20402;-78
2022/07/15 08:28:57;;;;;;;6.47;1.50;;;;;;;18.85;58.36;102242.97;5068242;28;20024;-82
2022/07/15 08:31:23;;;;;;;9.35;1.60;;;;;;;18.93;55.09;102247.34;5068926;28;20021;-79
2022/07/15 08:33:48;;;;;;;6.50;1.67;;;;;;;19.15;54.82;102252.31;5072431;28;20032;-79
2022/07/15 08:36:14;;;;;;;5.78;1.52;;;;;;;19.38;56.21;102254.25;5072919;28;20051;-78
2022/07/15 08:38:39;;;;;;;8.05;1.92;;;;;;;19.46;54.11;102250.31;5071771;28;20172;-79
2022/07/15 08:41:05;;;;;;;5.53;1.70;;;;;;;19.31;55.00;102248.88;5075707;28;20028;-79
2022/07/15 08:43:32;;;;;;;8.40;1.70;;;;;;;19.38;53.65;102251.50;5063253;28;20029;-79
2022/07/15 08:45:58;;;;;;;5.05;1.50;;;;;;;19.43;53.79;102251.59;5057649;28;20041;-81
2022/07/15 08:48:29;;;;;;;8.00;1.70;;;;;;;19.66;57.20;102250.78;5055703;28;20036;-81
2022/07/15 08:50:59;;;;;;;6.93;1.50;;;;;;;19.98;53.99;102239.44;5056730;28;21677;-79
2022/07/15 08:53:27;;;;;;;8.45;2.17;;;;;;;20.22;52.44;102233.88;5056583;28;20037;-79
2022/07/15 08:55:52;;;;;;;5.05;1.40;;;;;;;20.52;51.70;102241.09;5055842;28;20036;-81
2022/07/15 08:58:18;;;;;;;8.10;1.63;;;;;;;20.49;52.47;102238.84;5055979;28;20050;-81
2022/07/15 09:00:43;;;;;;;6.07;2.00;;;;;;;20.86;51.35;102246.72;5056799;28;20475;-80
2022/07/15 09:03:09;;;;;;;4.35;1.60;;;;;;;21.23;46.30;102241.63;5038558;28;20036;-80
2022/07/15 09:05:36;;;;;;;4.07;1.40;;;;;;;21.61;45.94;102230.09;5057118;28;20037;-80
2022/07/15 09:08:14;;;;;;;6.68;1.30;;;;;;;22.05;48.35;102235.69;5057029;28;20146;-81
2022/07/15 09:10:53;;;;;;;4.30;1.50;;;;;;;22.19;45.99;102236.16;5057539;28;20028;-80
2022/07/15 09:13:38;;;;;;;6.00;1.67;;;;;;;22.57;48.94;102234.41;5056661;28;20119;-80
2022/07/15 09:16:05;;;;;;;4.07;1.40;;;;;;;22.39;46.02;102238.38;5038891;28;20043;-81
2022/07/15 09:18:36;;;;;;;4.65;1.55;;;;;;;22.64;45.73;102234.22;5056516;28;20300;-80
2022/07/15 09:21:02;;;;;;;4.03;1.13;;;;;;;22.37;42.63;102235.00;5060884;28;20052;-79
2022/07/15 09:23:30;;;;;;;4.15;1.27;;;;;;;22.27;42.52;102224.66;5061925;28;20035;-79
2022/07/15 09:26:00;;;;;;;5.20;1.30;;;;;;;22.52;43.56;102231.59;5071521;28;20036;-80
2022/07/15 09:28:40;;;;;;;5.55;1.38;;;;;;;22.72;44.53;102234.56;5074565;28;20024;-79
2022/07/15 09:34:02;;;;;;;5.60;1.35;;;;;;;23.07;41.74;102238.78;5019672;28;20053;-81
2022/07/15 09:36:31;;;;;;;4.38;1.40;;;;;;;22.93;42.90;102232.03;5072434;28;20020;-80
2022/07/15 09:39:03;;;;;;;4.93;1.48;;;;;;;22.89;42.31;102239.19;5070715;28;20032;-81
2022/07/15 09:41:38;;;;;;;7.65;1.60;;;;;;;23.06;42.72;102234.34;5069065;28;20054;-81
2022/07/15 09:44:09;;;;;;;4.18;1.27;;;;;;;22.62;43.63;102228.13;5072169;28;20107;-81
2022/07/15 09:46:54;;;;;;;4.75;1.65;;;;;;;23.02;44.74;102237.91;5072013;28;20437;-83
2022/07/15 09:49:25;;;;;;;4.10;1.02;;;;;;;22.71;43.06;102238.44;5065244;28;20115;-81
2022/07/15 09:51:59;;;;;;;6.50;1.60;;;;;;;23.08;43.03;102237.69;5069560;28;20495;-81
2022/07/15 09:54:30;;;;;;;7.32;1.50;;;;;;;23.20;43.15;102231.19;5068435;28;20170;-81
2022/07/15 09:57:04;;;;;;;6.00;1.60;;;;;;;22.90;43.70;102229.78;5051861;28;20031;-81
2022/07/15 09:59:30;;;;;;;7.70;1.52;;;;;;;23.19;43.11;102229.53;5072241;28;20099;-82
2022/07/15 10:01:58;;;;;;;4.20;1.27;;;;;;;23.58;41.09;102224.56;5071610;28;20373;-81
2022/07/15 10:04:25;;;;;;;5.18;1.50;;;;;;;23.88;42.36;102219.47;5069626;28;20032;-80
2022/07/15 10:06:52;;;;;;;4.25;1.30;;;;;;;24.21;41.01;102214.69;5072882;28;20098;-81
2022/07/15 10:09:29;;;;;;;3.10;0.85;;;;;;;24.18;42.42;102223.50;5073528;28;20537;-81
2022/07/15 10:11:59;;;;;;;5.10;1.45;;;;;;;23.40;42.65;102219.44;5071035;28;20021;-81
2022/07/15 10:14:36;;;;;;;3.58;0.95;;;;;;;23.68;40.93;102220.19;5073554;28;20422;-81
2022/07/15 10:17:10;;;;;;;4.32;1.02;;;;;;;23.38;40.88;102216.94;5071758;28;20400;-81
2022/07/15 10:20:04;;;;;;;;;;;;;;;24.08;41.33;102216.84;5074280;28;20017;-81
2022/07/15 10:23:04;;;;;;;4.43;1.15;;;;;;;24.16;41.05;102214.66;5073810;28;19913;-81
2022/07/15 10:26:03;;;;;;;5.72;1.23;;;;;;;24.51;40.61;102208.38;5053926;28;20044;-81
2022/07/15 10:28:28;;;;;;;3.03;1.20;;;;;;;24.18;38.26;102206.91;5049576;28;20021;-80
2022/07/15 10:31:15;;;;;;;4.68;0.98;;;;;;;24.57;40.19;102199.00;5060163;28;20094;-81
2022/07/15 10:33:41;;;;;;;7.22;1.48;;;;;;;23.70;40.73;102199.44;5061355;28;20024;-78
2022/07/15 10:36:07;;;;;;;4.72;1.60;;;;;;;23.31;40.76;102194.22;5068039;28;20082;-77
2022/07/15 10:38:38;;;;;;;5.90;1.27;;;;;;;23.02;40.00;102202.78;5055219;28;20032;-80
2022/07/15 10:41:06;;;;;;;4.85;1.40;;;;;;;23.03;43.70;102207.22;5055244;28;20040;-81
2022/07/15 10:43:54;;;;;;;3.42;1.40;;;;;;;23.32;44.74;102200.59;5057693;28;20051;-82
2022/07/15 10:46:29;;;;;;;2.60;1.15;;;;;;;23.27;41.43;102185.63;5059478;28;20478;-80
2022/07/15 10:48:57;;;;;;;3.92;1.33;;;;;;;23.87;42.10;102187.38;5058913;28;20566;-79
2022/07/15 10:51:34;;;;;;;3.67;1.48;;;;;;;24.12;41.45;102191.38;5059030;28;20375;-81
2022/07/15 10:54:01;;;;;;;2.97;1.30;;;;;;;24.07;41.70;102184.72;5071695;28;20123;-78
2022/07/15 10:56:30;;;;;;;3.10;1.30;;;;;;;24.28;40.86;102184.78;5076762;28;20029;-79
2022/07/15 10:59:19;;;;;;;3.75;1.38;;;;;;;24.73;41.42;102180.47;5074504;28;20032;-79
2022/07/15 11:01:47;;;;;;;6.10;1.35;;;;;;;24.07;37.46;102176.41;5075931;28;20032;-79
2022/07/15 11:04:25;;;;;;;2.72;1.00;;;;;;;23.83;39.00;102177.94;5074854;28;20021;-79
2022/07/15 11:07:07;;;;;;;4.20;1.10;;;;;;;23.70;41.10;102170.94;5079788;28;20372;-79
2022/07/15 11:09:53;;;;;;;4.57;1.42;;;;;;;23.83;40.81;102170.47;5077143;28;20119;-79
2022/07/15 11:12:23;;;;;;;4.18;1.27;;;;;;;23.82;39.93;102167.97;5089833;28;20510;-80
2022/07/15 11:14:57;;;;;;;3.25;1.02;;;;;;;23.58;37.85;102168.38;5095665;28;20036;-79
2022/07/15 11:17:46;;;;;;;6.25;1.13;;;;;;;23.65;40.72;102165.38;5096715;28;20337;-79
2022/07/15 11:20:17;;;;;;;3.17;1.23;;;;;;;24.07;39.80;102168.09;5094993;28;20039;-78
2022/07/15 11:22:48;;;;;;;6.93;1.35;;;;;;;24.14;38.99;102173.41;5097459;28;20039;-78
2022/07/15 11:25:18;;;;;;;3.80;1.15;;;;;;;23.89;37.19;102177.69;5087007;28;20031;-77
2022/07/15 11:28:01;;;;;;;3.53;1.17;;;;;;;23.96;38.34;102166.38;5089567;28;20161;-77
2022/07/15 11:30:42;;;;;;;3.35;1.23;;;;;;;24.23;36.02;102157.91;5091935;28;20027;-78
2022/07/15 11:33:13;;;;;;;2.40;0.93;;;;;;;24.11;36.98;102160.06;5086814;28;20027;-77